Mason City, Washington
Current Conditions -  °F | °C
As of 6:53 PM on Saturday 24 Jan 2015 (Local Time) from KOMK Reporting Station
Overcast Overcast  
Wind Chill: 30°   Ceiling: 1300
Heat Index: 35°   Visibility: 10mi
Dew Point: 32°   Wind: 6mph
Humidity: 89%   Direction: 150°SSE
Pressure: 30.27"   Gusts: NA
Location:  48.2566°N, 119.238°W
Report Text: KOMK 250253Z AUTO 15005KT 10SM OVC013 02/00 A3027 RMK AO2 SLP266 T00170000 58004
Loading
Personal Weather Stations






























Interactive Weather Map New forecast layout! Learn more

10-Day Weather Forecast

Advertisements
Track Severe Weather on mobile